createdAt,value
2022-08-03T00:02:36.311Z,17.01
2022-08-03T00:07:37.486Z,16.96
2022-08-03T00:12:39.612Z,16.93
2022-08-03T00:17:51.930Z,16.85
2022-08-03T00:22:42.738Z,16.81
2022-08-03T00:27:44.105Z,16.74
2022-08-03T00:32:46.253Z,16.7
2022-08-03T00:37:48.197Z,16.64
2022-08-03T00:42:50.282Z,16.54
2022-08-03T00:47:51.685Z,16.48
2022-08-03T00:52:53.573Z,16.41
2022-08-03T00:57:54.979Z,16.34
2022-08-03T01:02:56.377Z,16.27
2022-08-03T01:07:58.459Z,16.19
2022-08-03T01:13:00.070Z,16.15
2022-08-03T01:18:01.791Z,16.1
2022-08-03T01:23:03.841Z,16.02
2022-08-03T01:28:05.779Z,15.97
2022-08-03T01:33:07.225Z,15.92
2022-08-03T01:38:08.410Z,15.83
2022-08-03T01:43:09.819Z,15.79
2022-08-03T01:48:11.359Z,15.74
2022-08-03T01:53:12.899Z,15.7
2022-08-03T01:58:15.040Z,15.64
2022-08-03T02:03:17.028Z,15.59
2022-08-03T02:08:18.269Z,15.53
2022-08-03T02:13:19.907Z,15.47
2022-08-03T02:18:21.354Z,15.41
2022-08-03T02:23:23.282Z,15.35
2022-08-03T02:28:25.452Z,15.29
2022-08-03T02:33:27.535Z,15.24
2022-08-03T02:38:29.515Z,15.2
2022-08-03T02:43:39.108Z,15.16
2022-08-03T02:48:32.305Z,15.14
2022-08-03T02:53:33.835Z,15.09
2022-08-03T02:58:35.919Z,15.03
2022-08-03T03:03:37.266Z,14.98
2022-08-03T03:08:38.823Z,14.93
2022-08-03T03:13:40.504Z,14.88
2022-08-03T03:18:42.414Z,14.83
2022-08-03T03:23:44.320Z,14.78
2022-08-03T03:28:45.670Z,14.74
2022-08-03T03:33:47.379Z,14.7
2022-08-03T03:38:49.092Z,14.66
2022-08-03T03:59:02.633Z,14.51
2022-08-03T04:14:08.759Z,14.46
2022-08-03T04:19:10.046Z,14.44
2022-08-03T04:29:13.077Z,14.46
2022-08-03T04:34:15.174Z,14.49
2022-08-03T04:39:17.065Z,14.53
2022-08-03T04:44:18.278Z,14.59
2022-08-03T04:49:20.323Z,14.65
2022-08-03T04:54:21.630Z,14.72
2022-08-03T04:59:23.070Z,14.81
2022-08-03T05:04:24.292Z,14.88
2022-08-03T05:09:39.611Z,14.97
2022-08-03T05:14:27.947Z,15.07
2022-08-03T05:19:29.304Z,15.22
2022-08-03T05:24:30.667Z,15.34
2022-08-03T05:29:40.670Z,15.48
2022-08-03T05:34:34.251Z,15.67
2022-08-03T05:39:36.239Z,15.83
2022-08-03T05:44:37.884Z,15.98
2022-08-03T05:49:39.552Z,16.15
2022-08-03T05:54:57.057Z,16.33
2022-08-03T05:59:53.762Z,16.56
2022-08-03T06:04:44.147Z,17.21
2022-08-03T06:09:56.661Z,17.52
2022-08-03T06:14:46.918Z,17.79
2022-08-03T06:19:48.411Z,18.35
2022-08-03T06:24:53.624Z,18.79
2022-08-03T06:29:51.515Z,19.2
2022-08-03T06:34:53.301Z,19.45
2022-08-03T06:39:55.034Z,19.95
2022-08-03T06:44:57.067Z,20.34
2022-08-03T06:50:12.518Z,20.72
2022-08-03T06:55:00.896Z,21.08
2022-08-03T07:00:06.889Z,21.47
2022-08-03T07:05:04.427Z,21.81
2022-08-03T07:10:06.357Z,22.08
2022-08-03T07:15:07.737Z,22.36
2022-08-03T07:20:09.567Z,22.68
2022-08-03T07:25:10.746Z,22.99
2022-08-03T07:30:12.585Z,23.34
2022-08-03T07:35:15.545Z,23.64
2022-08-03T07:40:15.654Z,23.93
2022-08-03T07:45:17.345Z,24.37
2022-08-03T07:50:18.962Z,24.67
2022-08-03T07:55:20.803Z,25.03
2022-08-03T08:00:22.031Z,25.45
2022-08-03T08:05:23.252Z,25.83
2022-08-03T08:10:24.741Z,26.47
2022-08-03T08:15:26.724Z,26.96
2022-08-03T08:20:30.884Z,27.26
2022-08-03T08:25:30.160Z,27.49
2022-08-03T08:30:31.405Z,28.08
2022-08-03T08:35:33.326Z,28.41
2022-08-03T08:40:35.158Z,28.7
2022-08-03T08:45:37.071Z,29.08
2022-08-03T08:50:38.346Z,29.03
2022-08-03T08:55:56.659Z,29.23
2022-08-03T09:00:42.227Z,29.15
2022-08-03T09:05:55.605Z,29.33
2022-08-03T09:10:45.533Z,29.52
2022-08-03T09:15:57.208Z,29.38
2022-08-03T09:20:48.843Z,29.33
2022-08-03T09:25:50.157Z,29.9
2022-08-03T09:30:51.835Z,30.04
2022-08-03T09:35:54.319Z,30.41
2022-08-03T09:40:59.417Z,30.43
2022-08-03T09:45:56.583Z,30.25
2022-08-03T09:51:13.724Z,30.13
2022-08-03T09:56:30.994Z,30.66
2022-08-03T10:01:02.794Z,30.08
2022-08-03T10:06:12.220Z,30.53
2022-08-03T10:11:05.602Z,30.63
2022-08-03T10:16:21.055Z,30.9
2022-08-03T10:21:09.176Z,30.78
2022-08-03T10:26:10.417Z,31.1
2022-08-03T10:31:12.172Z,31.23
2022-08-03T10:36:13.568Z,31.57
2022-08-03T10:41:15.730Z,31
2022-08-03T10:46:17.150Z,31.42
2022-08-03T10:51:18.336Z,31.03
2022-08-03T10:56:21.609Z,31.44
2022-08-03T11:01:21.969Z,31.68
2022-08-03T11:06:37.325Z,31.69
2022-08-03T11:11:26.139Z,31.82
2022-08-03T11:16:27.804Z,30.78
2022-08-03T11:21:30.475Z,31.01
2022-08-03T11:26:31.627Z,31.48
2022-08-03T11:31:49.062Z,31.08
2022-08-03T11:36:37.751Z,31.65
2022-08-03T11:41:42.857Z,31.66
2022-08-03T11:46:38.621Z,31.75
2022-08-03T11:51:40.356Z,31.69
2022-08-03T11:56:42.218Z,31.59
2022-08-03T12:01:44.368Z,31.63
2022-08-03T12:06:47.365Z,31.57
2022-08-03T12:11:51.019Z,31.55
2022-08-03T12:16:49.096Z,30.86
2022-08-03T12:21:57.037Z,31.29
2022-08-03T12:26:59.061Z,31.33
2022-08-03T12:31:53.886Z,31.03
2022-08-03T12:36:55.890Z,31.4
2022-08-03T12:41:57.375Z,31.71
2022-08-03T12:46:59.386Z,31.88
2022-08-03T12:52:04.043Z,31.9
2022-08-03T12:57:02.196Z,31.8
2022-08-03T13:02:04.420Z,31.84
2022-08-03T13:07:04.763Z,31.75
2022-08-03T13:12:08.134Z,31.43
2022-08-03T13:17:08.093Z,31.44
2022-08-03T13:22:09.934Z,31.23
2022-08-03T13:27:22.162Z,31.24
2022-08-03T13:32:13.036Z,31.44
2022-08-03T13:37:15.118Z,31.47
2022-08-03T13:42:17.085Z,31.4
2022-08-03T13:47:18.887Z,31.36
2022-08-03T13:52:21.102Z,30.94
2022-08-03T13:58:05.590Z,31.24
2022-08-03T14:02:24.524Z,31.42
2022-08-03T14:07:25.912Z,31.45
2022-08-03T14:12:27.297Z,31.37
2022-08-03T14:17:30.099Z,31.53
2022-08-03T14:22:31.344Z,31.27
2022-08-03T14:27:32.560Z,31.46
2022-08-03T14:32:33.937Z,31.53
2022-08-03T14:37:35.428Z,31.53
2022-08-03T14:42:37.240Z,31.62
2022-08-03T14:50:10.721Z,31.67
2022-08-03T14:52:40.750Z,31.59
2022-08-03T14:57:42.471Z,31.67
2022-08-03T15:02:44.592Z,31.58
2022-08-03T15:07:46.617Z,31.51
2022-08-03T15:12:48.700Z,31.44
2022-08-03T15:18:00.006Z,31.38
2022-08-03T15:22:52.079Z,31.2
2022-08-03T15:28:03.248Z,31.2
2022-08-03T15:32:56.037Z,31.27
2022-08-03T15:37:58.022Z,31.27
2022-08-03T15:42:59.459Z,31.23
2022-08-03T15:48:01.186Z,31.21
2022-08-03T15:53:02.371Z,30.89
2022-08-03T15:58:58.868Z,30.95
2022-08-03T16:03:05.150Z,30.97
2022-08-03T16:08:10.367Z,30.89
2022-08-03T16:13:09.055Z,30.91
2022-08-03T16:18:11.036Z,30.77
2022-08-03T16:23:12.655Z,30.73
2022-08-03T16:28:14.559Z,30.51
2022-08-03T16:33:17.158Z,30.5
2022-08-03T16:38:19.010Z,30.43
2022-08-03T16:43:19.188Z,30.27
2022-08-03T16:48:19.430Z,30.25
2022-08-03T16:53:33.037Z,30.14
2022-08-03T16:58:24.589Z,30
2022-08-03T17:03:25.232Z,29.95
2022-08-03T17:08:27.487Z,29.89
2022-08-03T17:13:39.011Z,29.77
2022-08-03T17:18:30.447Z,29.63
2022-08-03T17:23:34.267Z,29.57
2022-08-03T17:28:42.504Z,29.49
2022-08-03T17:33:35.828Z,29.39
2022-08-03T17:38:37.159Z,29.28
2022-08-03T17:44:08.241Z,29.12
2022-08-03T17:48:41.279Z,29
2022-08-03T17:53:41.930Z,28.92
2022-08-03T17:58:43.612Z,28.8
2022-08-03T18:03:58.227Z,28.69
2022-08-03T18:13:53.275Z,28.41
2022-08-03T18:54:03.499Z,27.17
2022-08-03T19:04:05.091Z,26.79
2022-08-03T19:09:06.526Z,26.58
2022-08-03T19:19:09.874Z,26.15
2022-08-03T19:24:11.374Z,25.87
2022-08-03T19:34:14.740Z,25.5
2022-08-03T19:39:25.182Z,25.32
2022-08-03T19:44:20.023Z,25.18
2022-08-03T19:49:20.024Z,25
2022-08-03T19:54:25.561Z,24.8
2022-08-03T19:59:23.523Z,24.58
2022-08-03T20:04:25.427Z,24.46
2022-08-03T20:09:30.442Z,24.33
2022-08-03T20:14:44.224Z,24.18
2022-08-03T20:19:32.566Z,24.09
2022-08-03T20:24:31.850Z,23.95
2022-08-03T20:29:42.870Z,23.81
2022-08-03T20:34:41.530Z,23.67
2022-08-03T20:39:46.317Z,23.57
2022-08-03T20:44:44.502Z,23.44
2022-08-03T20:49:46.573Z,23.32
2022-08-03T20:54:58.061Z,23.17
2022-08-03T20:59:51.302Z,23.01
2022-08-03T21:04:51.067Z,22.89
2022-08-03T21:09:52.408Z,22.77
2022-08-03T21:14:53.954Z,22.63
2022-08-03T21:19:56.032Z,22.5
2022-08-03T21:24:57.409Z,22.37
2022-08-03T21:29:59.045Z,22.23
2022-08-03T21:35:00.882Z,22.1
2022-08-03T21:40:02.337Z,21.98
2022-08-03T21:45:04.160Z,21.86
2022-08-03T21:50:09.386Z,21.72
2022-08-03T21:55:07.507Z,21.62
2022-08-03T22:15:14.888Z,21.25
2022-08-03T22:20:16.687Z,21.15
2022-08-03T22:25:18.023Z,21.05
2022-08-03T22:30:19.315Z,20.94
2022-08-03T22:35:20.688Z,20.86
2022-08-03T22:40:22.328Z,20.77
2022-08-03T22:45:45.342Z,20.68
2022-08-03T22:50:33.015Z,20.58
2022-08-03T22:55:27.899Z,20.49
2022-08-03T23:00:29.494Z,20.4
2022-08-03T23:05:59.885Z,20.29
2022-08-03T23:10:32.295Z,20.2
2022-08-03T23:15:33.982Z,20.1
2022-08-03T23:20:36.010Z,20.01
2022-08-03T23:25:41.238Z,19.91
2022-08-03T23:30:38.918Z,19.81
2022-08-03T23:36:17.200Z,19.71
2022-08-03T23:40:42.226Z,19.62
2022-08-03T23:45:43.519Z,19.54
2022-08-03T23:50:45.268Z,19.44
2022-08-03T23:55:46.936Z,19.35
